sensor_id;sensor_type;location;lat;lon;timestamp;pressure;altitude;pressure_sealevel;temperature;humidity
2675;BME280;1347;42.122;24.746;2022-09-01T00:01:44;99241.84;;;20.89;96.77
2675;BME280;1347;42.122;24.746;2022-09-01T00:04:13;99240.97;;;20.92;96.60
2675;BME280;1347;42.122;24.746;2022-09-01T00:06:41;99231.13;;;21.00;95.29
2675;BME280;1347;42.122;24.746;2022-09-01T00:09:10;99228.25;;;21.04;94.01
2675;BME280;1347;42.122;24.746;2022-09-01T00:11:39;99226.44;;;20.97;94.01
2675;BME280;1347;42.122;24.746;2022-09-01T00:14:07;99218.00;;;21.01;93.93
2675;BME280;1347;42.122;24.746;2022-09-01T00:16:36;99219.88;;;21.04;93.35
2675;BME280;1347;42.122;24.746;2022-09-01T00:19:04;99226.34;;;21.01;93.67
2675;BME280;1347;42.122;24.746;2022-09-01T00:21:33;99231.13;;;20.87;94.27
2675;BME280;1347;42.122;24.746;2022-09-01T00:24:01;99224.91;;;20.83;94.83
2675;BME280;1347;42.122;24.746;2022-09-01T00:26:28;99220.66;;;20.91;93.82
2675;BME280;1347;42.122;24.746;2022-09-01T00:28:55;99232.03;;;20.97;93.58
2675;BME280;1347;42.122;24.746;2022-09-01T00:31:23;99227.38;;;20.94;93.73
2675;BME280;1347;42.122;24.746;2022-09-01T00:33:51;99238.63;;;20.90;93.57
2675;BME280;1347;42.122;24.746;2022-09-01T00:36:19;99230.03;;;20.85;94.42
2675;BME280;1347;42.122;24.746;2022-09-01T00:38:46;99234.81;;;20.97;93.80
2675;BME280;1347;42.122;24.746;2022-09-01T00:41:14;99232.59;;;20.92;93.69
2675;BME280;1347;42.122;24.746;2022-09-01T00:43:43;99235.50;;;20.76;95.00
2675;BME280;1347;42.122;24.746;2022-09-01T00:46:13;99237.38;;;20.79;94.83
2675;BME280;1347;42.122;24.746;2022-09-01T00:48:40;99217.00;;;20.94;93.95
2675;BME280;1347;42.122;24.746;2022-09-01T00:51:10;99219.22;;;21.00;93.63
2675;BME280;1347;42.122;24.746;2022-09-01T00:53:40;99218.09;;;20.97;94.08
2675;BME280;1347;42.122;24.746;2022-09-01T00:56:08;99220.88;;;20.97;93.70
2675;BME280;1347;42.122;24.746;2022-09-01T00:58:36;99230.91;;;21.07;92.84
2675;BME280;1347;42.122;24.746;2022-09-01T01:01:05;99218.88;;;21.10;92.01
2675;BME280;1347;42.122;24.746;2022-09-01T01:03:32;99222.44;;;21.11;91.59
2675;BME280;1347;42.122;24.746;2022-09-01T01:06:01;99223.31;;;21.08;91.46
2675;BME280;1347;42.122;24.746;2022-09-01T01:08:33;99227.69;;;20.96;91.83
2675;BME280;1347;42.122;24.746;2022-09-01T01:11:01;99233.28;;;20.96;91.86
2675;BME280;1347;42.122;24.746;2022-09-01T01:13:29;99236.94;;;20.93;92.37
2675;BME280;1347;42.122;24.746;2022-09-01T01:15:57;99237.06;;;20.89;93.01
2675;BME280;1347;42.122;24.746;2022-09-01T01:18:24;99242.06;;;20.82;93.08
2675;BME280;1347;42.122;24.746;2022-09-01T01:20:57;99234.41;;;20.86;93.48
2675;BME280;1347;42.122;24.746;2022-09-01T01:23:48;99229.25;;;20.72;95.07
2675;BME280;1347;42.122;24.746;2022-09-01T01:26:23;99224.91;;;20.71;95.63
2675;BME280;1347;42.122;24.746;2022-09-01T01:28:50;99224.22;;;20.67;96.21
2675;BME280;1347;42.122;24.746;2022-09-01T01:31:19;99224.88;;;20.58;97.11
2675;BME280;1347;42.122;24.746;2022-09-01T01:33:50;99229.91;;;20.50;97.86
2675;BME280;1347;42.122;24.746;2022-09-01T01:36:20;99228.59;;;20.55;97.88
2675;BME280;1347;42.122;24.746;2022-09-01T01:38:53;99223.88;;;20.39;98.78
2675;BME280;1347;42.122;24.746;2022-09-01T01:41:29;99230.56;;;20.42;99.21
2675;BME280;1347;42.122;24.746;2022-09-01T01:43:56;99229.84;;;20.25;100.00
2675;BME280;1347;42.122;24.746;2022-09-01T01:46:24;99233.19;;;20.33;100.00
2675;BME280;1347;42.122;24.746;2022-09-01T01:48:51;99234.94;;;20.27;100.00
2675;BME280;1347;42.122;24.746;2022-09-01T01:51:20;99233.81;;;20.11;100.00
2675;BME280;1347;42.122;24.746;2022-09-01T01:53:52;99228.47;;;20.17;100.00
2675;BME280;1347;42.122;24.746;2022-09-01T01:56:21;99231.72;;;20.28;100.00
2675;BME280;1347;42.122;24.746;2022-09-01T01:58:52;99235.72;;;20.27;100.00
2675;BME280;1347;42.122;24.746;2022-09-01T02:01:20;99237.72;;;20.27;100.00
2675;BME280;1347;42.122;24.746;2022-09-01T02:03:48;99233.63;;;20.31;100.00
2675;BME280;1347;42.122;24.746;2022-09-01T02:06:17;99234.34;;;20.35;100.00
2675;BME280;1347;42.122;24.746;2022-09-01T02:08:50;99242.31;;;20.33;100.00
2675;BME280;1347;42.122;24.746;2022-09-01T02:11:21;99238.19;;;20.25;100.00
2675;BME280;1347;42.122;24.746;2022-09-01T02:13:48;99238.03;;;20.16;100.00
2675;BME280;1347;42.122;24.746;2022-09-01T02:16:17;99246.31;;;20.32;100.00
2675;BME280;1347;42.122;24.746;2022-09-01T02:18:45;99246.41;;;20.29;100.00
2675;BME280;1347;42.122;24.746;2022-09-01T02:21:14;99241.16;;;20.18;100.00
2675;BME280;1347;42.122;24.746;2022-09-01T02:23:45;99239.59;;;20.17;100.00
2675;BME280;1347;42.122;24.746;2022-09-01T02:26:13;99246.84;;;20.14;100.00
2675;BME280;1347;42.122;24.746;2022-09-01T02:28:41;99245.06;;;20.20;100.00
2675;BME280;1347;42.122;24.746;2022-09-01T02:31:10;99252.06;;;20.12;100.00
2675;BME280;1347;42.122;24.746;2022-09-01T02:33:39;99256.72;;;20.03;100.00
2675;BME280;1347;42.122;24.746;2022-09-01T02:36:11;99248.94;;;19.81;100.00
2675;BME280;1347;42.122;24.746;2022-09-01T02:38:38;99250.63;;;19.30;100.00
2675;BME280;1347;42.122;24.746;2022-09-01T02:41:11;99240.28;;;18.98;100.00
2675;BME280;1347;42.122;24.746;2022-09-01T02:43:38;99236.84;;;18.74;100.00
2675;BME280;1347;42.122;24.746;2022-09-01T02:46:08;99243.97;;;18.75;100.00
2675;BME280;1347;42.122;24.746;2022-09-01T02:48:39;99231.22;;;18.62;100.00
2675;BME280;1347;42.122;24.746;2022-09-01T02:51:11;99234.84;;;18.59;100.00
2675;BME280;1347;42.122;24.746;2022-09-01T02:53:39;99251.28;;;18.50;100.00
2675;BME280;1347;42.122;24.746;2022-09-01T02:56:08;99247.50;;;18.40;100.00
2675;BME280;1347;42.122;24.746;2022-09-01T02:58:40;99253.06;;;18.40;100.00
2675;BME280;1347;42.122;24.746;2022-09-01T03:01:12;99255.84;;;18.40;100.00
2675;BME280;1347;42.122;24.746;2022-09-01T03:03:41;99251.75;;;18.45;100.00
2675;BME280;1347;42.122;24.746;2022-09-01T03:06:08;99242.31;;;18.42;100.00
2675;BME280;1347;42.122;24.746;2022-09-01T03:08:37;99247.50;;;18.40;100.00
2675;BME280;1347;42.122;24.746;2022-09-01T03:11:05;99249.56;;;18.36;100.00
2675;BME280;1347;42.122;24.746;2022-09-01T03:13:36;99234.00;;;18.22;100.00
2675;BME280;1347;42.122;24.746;2022-09-01T03:16:04;99230.09;;;18.20;100.00
2675;BME280;1347;42.122;24.746;2022-09-01T03:18:31;99242.25;;;18.26;100.00
2675;BME280;1347;42.122;24.746;2022-09-01T03:21:00;99243.88;;;18.43;100.00
2675;BME280;1347;42.122;24.746;2022-09-01T03:23:29;99244.75;;;18.60;100.00
2675;BME280;1347;42.122;24.746;2022-09-01T03:25:56;99241.19;;;18.59;100.00
2675;BME280;1347;42.122;24.746;2022-09-01T03:28:24;99242.66;;;18.64;100.00
2675;BME280;1347;42.122;24.746;2022-09-01T03:30:53;99244.50;;;18.70;100.00
2675;BME280;1347;42.122;24.746;2022-09-01T03:33:22;99254.59;;;18.81;100.00
2675;BME280;1347;42.122;24.746;2022-09-01T03:35:49;99247.91;;;18.78;100.00
2675;BME280;1347;42.122;24.746;2022-09-01T03:38:18;99253.56;;;18.91;100.00
2675;BME280;1347;42.122;24.746;2022-09-01T03:40:49;99262.69;;;18.91;100.00
2675;BME280;1347;42.122;24.746;2022-09-01T03:43:17;99250.00;;;18.90;100.00
2675;BME280;1347;42.122;24.746;2022-09-01T03:45:48;99251.75;;;19.00;100.00
2675;BME280;1347;42.122;24.746;2022-09-01T03:48:15;99258.78;;;19.05;100.00
2675;BME280;1347;42.122;24.746;2022-09-01T03:50:44;99255.56;;;19.06;100.00
2675;BME280;1347;42.122;24.746;2022-09-01T03:53:13;99253.91;;;19.09;100.00
2675;BME280;1347;42.122;24.746;2022-09-01T03:55:44;99254.16;;;19.15;100.00
2675;BME280;1347;42.122;24.746;2022-09-01T03:58:13;99252.34;;;19.24;100.00
2675;BME280;1347;42.122;24.746;2022-09-01T04:00:46;99254.69;;;19.26;100.00
2675;BME280;1347;42.122;24.746;2022-09-01T04:03:14;99247.41;;;19.32;100.00
2675;BME280;1347;42.122;24.746;2022-09-01T04:05:44;99256.84;;;19.34;100.00
2675;BME280;1347;42.122;24.746;2022-09-01T04:08:12;99256.53;;;19.32;100.00
2675;BME280;1347;42.122;24.746;2022-09-01T04:10:44;99254.53;;;19.33;100.00
2675;BME280;1347;42.122;24.746;2022-09-01T04:13:15;99260.09;;;19.33;100.00
2675;BME280;1347;42.122;24.746;2022-09-01T04:15:42;99263.66;;;19.33;100.00
2675;BME280;1347;42.122;24.746;2022-09-01T04:18:09;99257.66;;;19.35;100.00
2675;BME280;1347;42.122;24.746;2022-09-01T04:20:37;99258.16;;;19.46;100.00
2675;BME280;1347;42.122;24.746;2022-09-01T04:23:17;99251.00;;;19.48;100.00
2675;BME280;1347;42.122;24.746;2022-09-01T04:25:54;99258.91;;;19.50;100.00
2675;BME280;1347;42.122;24.746;2022-09-01T04:28:23;99261.59;;;19.54;100.00
2675;BME280;1347;42.122;24.746;2022-09-01T04:30:55;99247.50;;;19.61;100.00
2675;BME280;1347;42.122;24.746;2022-09-01T04:33:23;99248.97;;;19.65;100.00
2675;BME280;1347;42.122;24.746;2022-09-01T04:35:52;99247.75;;;19.66;100.00
2675;BME280;1347;42.122;24.746;2022-09-01T04:38:23;99253.41;;;19.63;100.00
2675;BME280;1347;42.122;24.746;2022-09-01T04:40:55;99253.03;;;19.77;100.00
2675;BME280;1347;42.122;24.746;2022-09-01T04:43:23;99252.59;;;19.78;100.00
2675;BME280;1347;42.122;24.746;2022-09-01T04:45:50;99249.66;;;19.69;99.61
2675;BME280;1347;42.122;24.746;2022-09-01T04:48:18;99253.63;;;19.84;98.65
2675;BME280;1347;42.122;24.746;2022-09-01T04:50:46;99262.72;;;19.85;98.43
2675;BME280;1347;42.122;24.746;2022-09-01T04:53:14;99263.22;;;19.96;97.71
2675;BME280;1347;42.122;24.746;2022-09-01T04:55:43;99265.13;;;19.99;97.25
2675;BME280;1347;42.122;24.746;2022-09-01T04:58:15;99267.06;;;20.02;97.37
2675;BME280;1347;42.122;24.746;2022-09-01T05:00:44;99267.28;;;20.08;97.50
2675;BME280;1347;42.122;24.746;2022-09-01T05:03:13;99273.34;;;20.19;96.44
2675;BME280;1347;42.122;24.746;2022-09-01T05:05:43;99268.69;;;20.29;95.31
2675;BME280;1347;42.122;24.746;2022-09-01T05:08:12;99259.41;;;20.35;95.13
2675;BME280;1347;42.122;24.746;2022-09-01T05:10:41;99266.97;;;20.47;94.73
2675;BME280;1347;42.122;24.746;2022-09-01T05:13:10;99268.34;;;20.55;94.80
2675;BME280;1347;42.122;24.746;2022-09-01T05:15:39;99266.91;;;20.64;93.54
2675;BME280;1347;42.122;24.746;2022-09-01T05:18:12;99254.56;;;20.65;92.62
2675;BME280;1347;42.122;24.746;2022-09-01T05:20:39;99257.66;;;20.79;91.33
2675;BME280;1347;42.122;24.746;2022-09-01T05:23:08;99255.31;;;20.78;90.96
2675;BME280;1347;42.122;24.746;2022-09-01T05:25:40;99266.38;;;20.94;89.92
2675;BME280;1347;42.122;24.746;2022-09-01T05:28:09;99261.47;;;20.98;89.83
2675;BME280;1347;42.122;24.746;2022-09-01T05:30:38;99271.59;;;21.17;89.28
2675;BME280;1347;42.122;24.746;2022-09-01T05:33:06;99259.34;;;21.15;88.12
2675;BME280;1347;42.122;24.746;2022-09-01T05:35:38;99261.91;;;21.35;87.22
2675;BME280;1347;42.122;24.746;2022-09-01T05:38:08;99251.63;;;21.57;86.76
2675;BME280;1347;42.122;24.746;2022-09-01T05:40:37;99256.81;;;21.67;86.41
2675;BME280;1347;42.122;24.746;2022-09-01T05:43:07;99262.22;;;21.84;86.04
2675;BME280;1347;42.122;24.746;2022-09-01T05:45:39;99260.84;;;22.01;85.60
2675;BME280;1347;42.122;24.746;2022-09-01T05:48:10;99265.09;;;22.27;85.31
2675;BME280;1347;42.122;24.746;2022-09-01T05:50:38;99269.22;;;22.45;83.14
2675;BME280;1347;42.122;24.746;2022-09-01T05:53:08;99277.72;;;22.63;82.77
2675;BME280;1347;42.122;24.746;2022-09-01T05:55:40;99272.00;;;22.66;81.07
2675;BME280;1347;42.122;24.746;2022-09-01T05:58:08;99275.38;;;22.83;81.13
2675;BME280;1347;42.122;24.746;2022-09-01T06:00:40;99277.78;;;23.03;81.11
2675;BME280;1347;42.122;24.746;2022-09-01T06:03:08;99275.66;;;23.16;79.90
2675;BME280;1347;42.122;24.746;2022-09-01T06:05:35;99284.72;;;23.29;80.02
2675;BME280;1347;42.122;24.746;2022-09-01T06:08:03;99277.91;;;23.39;78.42
2675;BME280;1347;42.122;24.746;2022-09-01T06:10:31;99274.66;;;23.41;79.12
2675;BME280;1347;42.122;24.746;2022-09-01T06:12:59;99277.22;;;23.66;78.26
2675;BME280;1347;42.122;24.746;2022-09-01T06:15:27;99272.09;;;23.74;77.04
2675;BME280;1347;42.122;24.746;2022-09-01T06:17:57;99277.53;;;23.77;76.78
2675;BME280;1347;42.122;24.746;2022-09-01T06:20:25;99275.38;;;24.09;76.85
2675;BME280;1347;42.122;24.746;2022-09-01T06:22:52;99280.84;;;24.22;76.13
2675;BME280;1347;42.122;24.746;2022-09-01T06:25:20;99278.50;;;24.38;75.27
2675;BME280;1347;42.122;24.746;2022-09-01T06:27:49;99278.91;;;24.73;74.91
2675;BME280;1347;42.122;24.746;2022-09-01T06:30:17;99278.75;;;25.19;73.00
2675;BME280;1347;42.122;24.746;2022-09-01T06:32:47;99269.66;;;26.19;71.09
2675;BME280;1347;42.122;24.746;2022-09-01T06:35:17;99277.31;;;27.22;66.93
2675;BME280;1347;42.122;24.746;2022-09-01T06:37:45;99270.97;;;27.41;64.99
2675;BME280;1347;42.122;24.746;2022-09-01T06:40:15;99280.72;;;28.99;61.03
2675;BME280;1347;42.122;24.746;2022-09-01T06:42:43;99275.72;;;30.11;57.23
2675;BME280;1347;42.122;24.746;2022-09-01T06:45:12;99271.47;;;31.27;54.18
2675;BME280;1347;42.122;24.746;2022-09-01T06:47:40;99276.06;;;32.21;52.13
2675;BME280;1347;42.122;24.746;2022-09-01T06:50:09;99266.50;;;33.98;46.88
2675;BME280;1347;42.122;24.746;2022-09-01T06:52:40;99279.28;;;35.12;44.50
2675;BME280;1347;42.122;24.746;2022-09-01T06:55:09;99274.84;;;36.22;41.14
2675;BME280;1347;42.122;24.746;2022-09-01T06:57:36;99271.66;;;37.21;38.75
2675;BME280;1347;42.122;24.746;2022-09-01T07:00:05;99275.63;;;37.47;39.37
2675;BME280;1347;42.122;24.746;2022-09-01T07:02:42;99274.34;;;37.06;38.45
2675;BME280;1347;42.122;24.746;2022-09-01T07:05:10;99273.59;;;37.83;38.48
2675;BME280;1347;42.122;24.746;2022-09-01T07:07:48;99281.47;;;38.49;36.66
2675;BME280;1347;42.122;24.746;2022-09-01T07:10:16;99277.59;;;39.21;36.27
2675;BME280;1347;42.122;24.746;2022-09-01T07:12:47;99274.06;;;40.38;34.10
2675;BME280;1347;42.122;24.746;2022-09-01T07:15:14;99282.94;;;40.58;33.93
2675;BME280;1347;42.122;24.746;2022-09-01T07:17:42;99265.53;;;41.05;32.96
2675;BME280;1347;42.122;24.746;2022-09-01T07:20:13;99271.88;;;41.29;32.49
2675;BME280;1347;42.122;24.746;2022-09-01T07:22:41;99265.84;;;41.76;32.35
2675;BME280;1347;42.122;24.746;2022-09-01T07:25:10;99263.38;;;42.07;30.94
2675;BME280;1347;42.122;24.746;2022-09-01T07:27:37;99260.84;;;41.77;31.77
2675;BME280;1347;42.122;24.746;2022-09-01T07:30:06;99260.41;;;42.69;30.84
2675;BME280;1347;42.122;24.746;2022-09-01T07:32:35;99259.34;;;42.37;30.66
2675;BME280;1347;42.122;24.746;2022-09-01T07:35:04;99256.53;;;42.03;30.54
2675;BME280;1347;42.122;24.746;2022-09-01T07:37:33;99252.53;;;43.06;30.11
2675;BME280;1347;42.122;24.746;2022-09-01T07:40:04;99255.50;;;42.88;30.72
2675;BME280;1347;42.122;24.746;2022-09-01T07:42:34;99249.16;;;43.00;30.65
2675;BME280;1347;42.122;24.746;2022-09-01T07:45:01;99247.47;;;42.87;30.37
2675;BME280;1347;42.122;24.746;2022-09-01T07:47:34;99245.66;;;43.57;29.57
2675;BME280;1347;42.122;24.746;2022-09-01T07:50:03;99249.63;;;43.71;28.27
2675;BME280;1347;42.122;24.746;2022-09-01T07:52:33;99243.69;;;43.69;29.98
2675;BME280;1347;42.122;24.746;2022-09-01T07:55:01;99245.97;;;43.71;29.08
2675;BME280;1347;42.122;24.746;2022-09-01T07:57:28;99245.63;;;44.24;28.20
2675;BME280;1347;42.122;24.746;2022-09-01T07:59:57;99244.16;;;44.64;27.78
2675;BME280;1347;42.122;24.746;2022-09-01T08:02:25;99239.38;;;44.47;28.46
2675;BME280;1347;42.122;24.746;2022-09-01T08:04:52;99243.91;;;45.22;27.18
2675;BME280;1347;42.122;24.746;2022-09-01T08:07:19;99232.59;;;44.14;28.01
2675;BME280;1347;42.122;24.746;2022-09-01T08:09:46;99235.50;;;44.04;28.42
2675;BME280;1347;42.122;24.746;2022-09-01T08:12:13;99235.28;;;44.71;27.53
2675;BME280;1347;42.122;24.746;2022-09-01T08:14:40;99235.03;;;43.98;28.20
2675;BME280;1347;42.122;24.746;2022-09-01T08:17:08;99232.59;;;42.90;28.55
2675;BME280;1347;42.122;24.746;2022-09-01T08:19:35;99233.03;;;44.10;28.69
2675;BME280;1347;42.122;24.746;2022-09-01T08:22:02;99231.63;;;44.40;27.64
2675;BME280;1347;42.122;24.746;2022-09-01T08:24:29;99231.09;;;43.84;28.15
2675;BME280;1347;42.122;24.746;2022-09-01T08:26:56;99227.88;;;43.41;29.12
2675;BME280;1347;42.122;24.746;2022-09-01T08:29:23;99217.53;;;43.38;28.31
2675;BME280;1347;42.122;24.746;2022-09-01T08:31:50;99219.63;;;43.18;29.35
2675;BME280;1347;42.122;24.746;2022-09-01T08:34:20;99215.28;;;44.04;28.78
2675;BME280;1347;42.122;24.746;2022-09-01T08:36:47;99217.13;;;44.50;28.75
2675;BME280;1347;42.122;24.746;2022-09-01T08:39:14;99217.56;;;43.96;28.40
2675;BME280;1347;42.122;24.746;2022-09-01T08:41:43;99213.38;;;39.94;32.79
2675;BME280;1347;42.122;24.746;2022-09-01T08:44:18;99210.69;;;39.26;33.14
2675;BME280;1347;42.122;24.746;2022-09-01T08:46:48;99204.91;;;39.41;32.92
2675;BME280;1347;42.122;24.746;2022-09-01T08:49:23;99204.19;;;39.18;33.21
2675;BME280;1347;42.122;24.746;2022-09-01T08:51:55;99192.16;;;39.12;33.73
2675;BME280;1347;42.122;24.746;2022-09-01T08:54:27;99190.75;;;40.38;32.67
2675;BME280;1347;42.122;24.746;2022-09-01T08:57:00;99185.03;;;39.91;33.00
2675;BME280;1347;42.122;24.746;2022-09-01T08:59:30;99196.66;;;39.53;32.89
2675;BME280;1347;42.122;24.746;2022-09-01T09:02:03;99184.09;;;38.34;35.00
2675;BME280;1347;42.122;24.746;2022-09-01T09:04:46;99179.50;;;38.39;34.35
2675;BME280;1347;42.122;24.746;2022-09-01T09:07:26;99170.50;;;39.41;33.97
2675;BME280;1347;42.122;24.746;2022-09-01T09:10:05;99179.25;;;40.38;32.62
2675;BME280;1347;42.122;24.746;2022-09-01T09:12:45;99175.63;;;39.58;33.12
2675;BME280;1347;42.122;24.746;2022-09-01T09:15:21;99178.16;;;39.38;33.63
2675;BME280;1347;42.122;24.746;2022-09-01T09:17:55;99172.19;;;39.59;34.07
2675;BME280;1347;42.122;24.746;2022-09-01T09:20:26;99176.38;;;40.06;32.60
2675;BME280;1347;42.122;24.746;2022-09-01T09:22:54;99172.47;;;38.93;34.17
2675;BME280;1347;42.122;24.746;2022-09-01T09:25:22;99169.41;;;38.45;34.70
2675;BME280;1347;42.122;24.746;2022-09-01T09:27:50;99166.19;;;38.64;34.78
2675;BME280;1347;42.122;24.746;2022-09-01T09:30:20;99157.97;;;38.76;34.38
2675;BME280;1347;42.122;24.746;2022-09-01T09:32:51;99152.19;;;38.30;35.18
2675;BME280;1347;42.122;24.746;2022-09-01T09:35:23;99154.13;;;38.81;34.48
2675;BME280;1347;42.122;24.746;2022-09-01T09:37:52;99154.28;;;39.28;34.20
2675;BME280;1347;42.122;24.746;2022-09-01T09:40:21;99161.41;;;38.82;33.96
2675;BME280;1347;42.122;24.746;2022-09-01T09:43:02;99147.63;;;39.03;33.84
2675;BME280;1347;42.122;24.746;2022-09-01T09:45:32;99149.44;;;39.94;33.02
2675;BME280;1347;42.122;24.746;2022-09-01T09:48:03;99148.28;;;39.97;33.66
2675;BME280;1347;42.122;24.746;2022-09-01T09:50:32;99152.00;;;39.12;33.59
2675;BME280;1347;42.122;24.746;2022-09-01T09:53:14;99141.81;;;39.33;33.14
2675;BME280;1347;42.122;24.746;2022-09-01T09:55:57;99142.47;;;38.94;34.18
2675;BME280;1347;42.122;24.746;2022-09-01T09:58:27;99135.03;;;38.83;33.66
2675;BME280;1347;42.122;24.746;2022-09-01T10:01:00;99135.59;;;39.05;33.74
2675;BME280;1347;42.122;24.746;2022-09-01T10:03:36;99128.75;;;38.54;34.38
2675;BME280;1347;42.122;24.746;2022-09-01T10:06:09;99126.56;;;39.23;33.82
2675;BME280;1347;42.122;24.746;2022-09-01T10:08:41;99122.75;;;39.13;33.69
2675;BME280;1347;42.122;24.746;2022-09-01T10:11:23;99123.38;;;39.04;34.42
2675;BME280;1347;42.122;24.746;2022-09-01T10:13:51;99120.69;;;39.06;33.65
2675;BME280;1347;42.122;24.746;2022-09-01T10:16:24;99123.59;;;38.98;33.71
2675;BME280;1347;42.122;24.746;2022-09-01T10:18:53;99109.31;;;37.79;35.34
2675;BME280;1347;42.122;24.746;2022-09-01T10:21:27;99112.03;;;37.92;36.26
2675;BME280;1347;42.122;24.746;2022-09-01T10:23:59;99112.59;;;37.98;35.74
2675;BME280;1347;42.122;24.746;2022-09-01T10:26:31;99107.84;;;37.42;35.94
2675;BME280;1347;42.122;24.746;2022-09-01T10:29:05;99096.56;;;37.87;36.58
2675;BME280;1347;42.122;24.746;2022-09-01T10:31:34;99095.41;;;37.83;35.37
2675;BME280;1347;42.122;24.746;2022-09-01T10:34:03;99097.19;;;38.09;35.86
2675;BME280;1347;42.122;24.746;2022-09-01T10:36:31;99101.16;;;37.39;35.77
2675;BME280;1347;42.122;24.746;2022-09-01T10:39:00;99095.22;;;37.01;36.03
2675;BME280;1347;42.122;24.746;2022-09-01T10:41:47;99091.66;;;36.31;37.96
2675;BME280;1347;42.122;24.746;2022-09-01T10:44:22;99077.16;;;36.08;37.70
2675;BME280;1347;42.122;24.746;2022-09-01T10:46:51;99082.44;;;35.70;38.65
2675;BME280;1347;42.122;24.746;2022-09-01T10:52:51;99077.28;;;35.82;39.09
2675;BME280;1347;42.122;24.746;2022-09-01T10:55:21;99080.81;;;35.27;39.21
2675;BME280;1347;42.122;24.746;2022-09-01T10:57:56;99080.69;;;34.93;39.48
2675;BME280;1347;42.122;24.746;2022-09-01T11:00:48;99071.38;;;35.19;39.97
2675;BME280;1347;42.122;24.746;2022-09-01T11:03:38;99068.63;;;35.27;39.71
2675;BME280;1347;42.122;24.746;2022-09-01T11:06:51;99063.06;;;34.95;40.55
2675;BME280;1347;42.122;24.746;2022-09-01T11:09:22;99060.56;;;34.78;39.67
2675;BME280;1347;42.122;24.746;2022-09-01T11:12:07;99059.72;;;34.51;40.89
2675;BME280;1347;42.122;24.746;2022-09-01T11:14:47;99049.13;;;34.39;41.02
2675;BME280;1347;42.122;24.746;2022-09-01T11:17:17;99042.66;;;34.38;41.55
2675;BME280;1347;42.122;24.746;2022-09-01T11:19:52;99040.69;;;34.46;41.55
2675;BME280;1347;42.122;24.746;2022-09-01T11:22:27;99051.19;;;34.51;41.70
2675;BME280;1347;42.122;24.746;2022-09-01T11:25:13;99042.66;;;34.38;41.46
2675;BME280;1347;42.122;24.746;2022-09-01T11:28:01;99048.69;;;34.03;41.21
2675;BME280;1347;42.122;24.746;2022-09-01T11:30:35;99031.53;;;33.76;41.44
2675;BME280;1347;42.122;24.746;2022-09-01T11:33:15;99031.63;;;33.33;41.83
2675;BME280;1347;42.122;24.746;2022-09-01T11:35:45;99036.16;;;33.42;42.22
2675;BME280;1347;42.122;24.746;2022-09-01T11:38:15;99042.16;;;33.38;42.45
2675;BME280;1347;42.122;24.746;2022-09-01T11:40:53;99033.22;;;33.29;41.85
2675;BME280;1347;42.122;24.746;2022-09-01T11:43:23;99033.75;;;33.08;41.98
2675;BME280;1347;42.122;24.746;2022-09-01T11:45:57;99027.47;;;33.15;41.90
2675;BME280;1347;42.122;24.746;2022-09-01T11:48:28;99019.94;;;33.18;42.12
2675;BME280;1347;42.122;24.746;2022-09-01T11:50:57;99023.31;;;33.16;42.47
2675;BME280;1347;42.122;24.746;2022-09-01T11:53:25;99014.47;;;33.01;43.08
2675;BME280;1347;42.122;24.746;2022-09-01T11:55:55;99018.47;;;33.11;42.43
2675;BME280;1347;42.122;24.746;2022-09-01T11:58:32;99017.56;;;33.22;42.37
2675;BME280;1347;42.122;24.746;2022-09-01T12:01:15;99012.03;;;33.11;41.47
2675;BME280;1347;42.122;24.746;2022-09-01T12:03:44;99009.31;;;33.00;41.81
2675;BME280;1347;42.122;24.746;2022-09-01T12:06:20;99008.34;;;32.97;42.02
2675;BME280;1347;42.122;24.746;2022-09-01T12:08:53;98992.16;;;32.68;41.55
2675;BME280;1347;42.122;24.746;2022-09-01T12:11:22;98992.34;;;32.75;41.65
2675;BME280;1347;42.122;24.746;2022-09-01T12:13:58;98986.44;;;32.49;42.06
2675;BME280;1347;42.122;24.746;2022-09-01T12:16:27;98982.41;;;32.39;42.08
2675;BME280;1347;42.122;24.746;2022-09-01T12:18:56;98983.41;;;32.66;41.96
2675;BME280;1347;42.122;24.746;2022-09-01T12:21:26;98976.09;;;33.13;42.00
2675;BME280;1347;42.122;24.746;2022-09-01T12:24:09;98974.22;;;33.53;40.87
2675;BME280;1347;42.122;24.746;2022-09-01T12:26:37;98973.94;;;33.70;40.04
2675;BME280;1347;42.122;24.746;2022-09-01T12:29:06;98964.88;;;34.04;39.50
2675;BME280;1347;42.122;24.746;2022-09-01T12:31:34;98958.34;;;34.09;39.63
2675;BME280;1347;42.122;24.746;2022-09-01T12:34:01;98965.38;;;34.60;38.59
2675;BME280;1347;42.122;24.746;2022-09-01T12:36:31;98965.38;;;34.47;38.64
2675;BME280;1347;42.122;24.746;2022-09-01T12:39:20;98957.81;;;34.37;38.45
2675;BME280;1347;42.122;24.746;2022-09-01T12:42:01;98960.56;;;35.16;37.71
2675;BME280;1347;42.122;24.746;2022-09-01T12:44:32;98966.25;;;35.29;37.69
2675;BME280;1347;42.122;24.746;2022-09-01T12:47:03;98965.66;;;35.64;36.95
2675;BME280;1347;42.122;24.746;2022-09-01T12:49:37;98965.69;;;34.70;37.74
2675;BME280;1347;42.122;24.746;2022-09-01T12:54:52;98960.00;;;34.57;36.90
2675;BME280;1347;42.122;24.746;2022-09-01T12:57:27;98951.19;;;34.94;37.57
2675;BME280;1347;42.122;24.746;2022-09-01T13:00:16;98960.97;;;35.33;37.31
2675;BME280;1347;42.122;24.746;2022-09-01T13:02:45;98959.31;;;35.37;37.07
2675;BME280;1347;42.122;24.746;2022-09-01T13:05:19;98957.34;;;35.32;36.96
2675;BME280;1347;42.122;24.746;2022-09-01T13:07:46;98959.88;;;35.36;37.45
2675;BME280;1347;42.122;24.746;2022-09-01T13:10:13;98956.38;;;34.43;37.07
2675;BME280;1347;42.122;24.746;2022-09-01T13:12:41;98951.81;;;34.40;37.35
2675;BME280;1347;42.122;24.746;2022-09-01T13:15:09;98951.41;;;34.04;38.22
2675;BME280;1347;42.122;24.746;2022-09-01T13:17:37;98953.28;;;33.70;37.70
2675;BME280;1347;42.122;24.746;2022-09-01T13:20:06;98948.00;;;33.79;38.35
2675;BME280;1347;42.122;24.746;2022-09-01T13:22:33;98950.59;;;33.45;38.16
2675;BME280;1347;42.122;24.746;2022-09-01T13:25:00;98954.09;;;33.51;38.48
2675;BME280;1347;42.122;24.746;2022-09-01T13:27:27;98934.75;;;33.50;37.80
2675;BME280;1347;42.122;24.746;2022-09-01T13:29:54;98938.69;;;33.47;37.66
2675;BME280;1347;42.122;24.746;2022-09-01T13:32:22;98933.44;;;33.83;38.77